createdAt,value
2018-09-02T00:01:28.745Z,96194.88
2018-09-02T00:04:03.483Z,96191.15
2018-09-02T00:06:38.358Z,96192.14
2018-09-02T00:09:13.608Z,96189.06
2018-09-02T00:11:48.598Z,96185.64
2018-09-02T00:14:23.254Z,96182.72
2018-09-02T00:16:58.343Z,96182.00
2018-09-02T00:19:33.179Z,96175.79
2018-09-02T00:22:08.184Z,96171.31
2018-09-02T00:24:42.595Z,96167.77
2018-09-02T00:27:17.133Z,96166.83
2018-09-02T00:29:51.595Z,96169.75
2018-09-02T00:32:26.015Z,96165.74
2018-09-02T00:35:00.832Z,96163.69
2018-09-02T00:37:35.824Z,96165.90
2018-09-02T00:40:10.372Z,96165.86
2018-09-02T00:42:45.741Z,96164.74
2018-09-02T00:45:20.911Z,96160.58
2018-09-02T00:47:55.577Z,96160.67
2018-09-02T00:50:30.185Z,96157.09
2018-09-02T00:53:05.056Z,96157.25
2018-09-02T00:55:40.181Z,96161.98
2018-09-02T00:58:15.007Z,96153.49
2018-09-02T01:00:49.647Z,96154.27
2018-09-02T01:03:23.973Z,96156.51
2018-09-02T01:05:58.451Z,96156.82
2018-09-02T01:08:33.611Z,96158.94
2018-09-02T01:11:08.274Z,96154.95
2018-09-02T01:13:42.816Z,96154.33
2018-09-02T01:16:17.913Z,96157.63
2018-09-02T01:18:52.197Z,96158.06
2018-09-02T01:21:27.287Z,96160.17
2018-09-02T01:24:02.196Z,96154.58
2018-09-02T01:26:36.727Z,96146.74
2018-09-02T01:29:11.215Z,96145.63
2018-09-02T01:31:46.196Z,96148.86
2018-09-02T01:34:21.953Z,96149.67
2018-09-02T01:36:56.422Z,96146.38
2018-09-02T01:39:31.238Z,96148.48
2018-09-02T01:42:06.079Z,96148.17
2018-09-02T01:44:40.475Z,96140.95
2018-09-02T01:47:15.139Z,96138.53
2018-09-02T01:49:49.548Z,96136.17
2018-09-02T01:52:24.184Z,96130.64
2018-09-02T01:54:58.947Z,96138.78
2018-09-02T01:57:33.359Z,96135.98
2018-09-02T02:00:08.227Z,96128.52
2018-09-02T02:02:42.791Z,96129.27
2018-09-02T02:05:17.623Z,96115.94
2018-09-02T02:07:52.334Z,96114.07
2018-09-02T02:10:26.959Z,96103.12
2018-09-02T02:13:01.441Z,96109.16
2018-09-02T02:15:36.171Z,96104.74
2018-09-02T02:18:10.653Z,96094.86
2018-09-02T02:20:45.363Z,96099.09
2018-09-02T02:23:20.152Z,96102.56
2018-09-02T02:25:55.324Z,96106.17
2018-09-02T02:28:29.712Z,96100.77
2018-09-02T02:31:04.754Z,96102.25
2018-09-02T02:33:39.149Z,96100.77
2018-09-02T02:36:13.522Z,96102.41
2018-09-02T02:38:48.078Z,96103.84
2018-09-02T02:41:23.077Z,96110.98
2018-09-02T02:43:57.843Z,96111.36
2018-09-02T02:46:32.328Z,96106.45
2018-09-02T02:49:07.645Z,96093.20
2018-09-02T02:51:42.742Z,96096.63
2018-09-02T02:54:17.631Z,96100.04
2018-09-02T02:56:52.221Z,96095.56
2018-09-02T02:59:27.190Z,96092.89
2018-09-02T03:02:01.727Z,96088.59
2018-09-02T03:04:36.347Z,96088.53
2018-09-02T03:07:11.781Z,96090.33
2018-09-02T03:09:46.760Z,96085.73
2018-09-02T03:12:21.547Z,96086.91
2018-09-02T03:14:55.888Z,96086.16
2018-09-02T03:17:30.393Z,96084.72
2018-09-02T03:20:05.635Z,96093.56
2018-09-02T03:22:40.760Z,96086.04
2018-09-02T03:25:16.147Z,96078.89
2018-09-02T03:27:50.761Z,96081.69
2018-09-02T03:30:25.571Z,96076.09
2018-09-02T03:33:00.708Z,96074.09
2018-09-02T03:35:35.424Z,96074.28
2018-09-02T03:38:09.879Z,96067.75
2018-09-02T03:40:45.266Z,96061.72
2018-09-02T03:43:20.279Z,96052.58
2018-09-02T03:45:54.788Z,96052.58
2018-09-02T03:48:29.749Z,96047.16
2018-09-02T03:51:04.364Z,96050.27
2018-09-02T03:53:39.023Z,96047.36
2018-09-02T03:56:13.957Z,96045.54
2018-09-02T03:58:49.261Z,96042.75
2018-09-02T04:01:24.044Z,96048.35
2018-09-02T04:03:59.240Z,96043.13
2018-09-02T04:06:33.859Z,96044.81
2018-09-02T04:09:10.529Z,96038.09
2018-09-02T04:11:45.354Z,96045.55
2018-09-02T04:14:20.080Z,96041.94
2018-09-02T04:16:54.886Z,96044.05
2018-09-02T04:19:29.340Z,96043.05
2018-09-02T04:22:04.035Z,96045.55
2018-09-02T04:24:38.554Z,96050.27
2018-09-02T04:27:13.306Z,96050.89
2018-09-02T04:29:48.391Z,96052.27
2018-09-02T04:32:22.911Z,96044.24
2018-09-02T04:34:57.346Z,96046.55
2018-09-02T04:37:32.059Z,96041.13
2018-09-02T04:40:07.271Z,96040.39
2018-09-02T04:42:42.263Z,96038.28
2018-09-02T04:45:16.725Z,96038.28
2018-09-02T04:47:51.520Z,96043.75
2018-09-02T04:50:25.929Z,96040.20
2018-09-02T04:53:00.951Z,96042.32
2018-09-02T04:55:35.426Z,96038.21
2018-09-02T04:58:10.304Z,96039.52
2018-09-02T05:00:45.063Z,96037.02
2018-09-02T05:03:20.119Z,96039.64
2018-09-02T05:05:54.852Z,96044.55
2018-09-02T05:08:29.654Z,96042.86
2018-09-02T05:11:04.281Z,96042.78
2018-09-02T05:13:39.359Z,96045.33
2018-09-02T05:16:13.716Z,96041.24
2018-09-02T05:18:48.338Z,96046.09
2018-09-02T05:21:22.823Z,96046.44
2018-09-02T05:23:57.212Z,96042.48
2018-09-02T05:26:31.815Z,96043.47
2018-09-02T05:29:07.111Z,96036.75
2018-09-02T05:31:41.436Z,96033.56
2018-09-02T05:34:16.176Z,96019.50
2018-09-02T05:36:50.702Z,96019.77
2018-09-02T05:39:25.991Z,96019.30
2018-09-02T05:42:00.638Z,96015.00
2018-09-02T05:44:35.235Z,96010.53
2018-09-02T05:47:10.307Z,96012.13
2018-09-02T05:49:44.748Z,96028.05
2018-09-02T05:52:19.143Z,96028.42
2018-09-02T05:54:54.203Z,96028.66
2018-09-02T05:57:28.878Z,96037.22
2018-09-02T06:00:03.611Z,96033.91
2018-09-02T06:02:38.382Z,96044.52
2018-09-02T06:05:14.047Z,96038.20
2018-09-02T06:07:49.071Z,96044.94
2018-09-02T06:10:24.107Z,96048.36
2018-09-02T06:12:59.103Z,96044.05
2018-09-02T06:15:34.143Z,96048.19
2018-09-02T06:18:08.935Z,96051.26
2018-09-02T06:20:43.416Z,96047.95
2018-09-02T06:23:17.748Z,96038.01
2018-09-02T06:25:52.345Z,96041.48
2018-09-02T06:28:26.758Z,96041.34
2018-09-02T06:31:01.475Z,96038.70
2018-09-02T06:33:36.208Z,96030.15
2018-09-02T06:36:11.075Z,96036.80
2018-09-02T06:38:45.483Z,96025.09
2018-09-02T06:41:20.571Z,96023.88
2018-09-02T06:43:54.883Z,96034.03
2018-09-02T06:46:29.986Z,96025.77
2018-09-02T06:49:04.896Z,96024.91
2018-09-02T06:51:39.375Z,96023.09
2018-09-02T06:54:13.706Z,96024.79
2018-09-02T06:56:48.349Z,96029.16
2018-09-02T06:59:23.623Z,96031.05
2018-09-02T07:01:58.218Z,96036.86
2018-09-02T07:04:33.748Z,96039.20
2018-09-02T07:07:08.357Z,96031.40
2018-09-02T07:09:43.456Z,96031.72
2018-09-02T07:12:17.718Z,96035.16
2018-09-02T07:14:51.991Z,96031.51
2018-09-02T07:17:27.004Z,96031.23
2018-09-02T07:20:01.602Z,96033.05
2018-09-02T07:22:36.627Z,96028.89
2018-09-02T07:25:11.559Z,96026.38
2018-09-02T07:27:46.064Z,96035.48
2018-09-02T07:30:20.942Z,96035.14
2018-09-02T07:32:55.451Z,96037.86
2018-09-02T07:35:29.996Z,96042.33
2018-09-02T07:38:05.228Z,96046.19
2018-09-02T07:40:39.527Z,96042.26
2018-09-02T07:43:14.167Z,96044.58
2018-09-02T07:45:49.526Z,96031.58
2018-09-02T07:48:24.283Z,96024.04
2018-09-02T07:50:58.712Z,96027.27
2018-09-02T07:53:33.427Z,96029.99
2018-09-02T07:56:08.439Z,96034.23
2018-09-02T07:58:43.035Z,96041.01
2018-09-02T08:01:17.819Z,96041.13
2018-09-02T08:03:52.687Z,96040.30
2018-09-02T08:06:28.002Z,96040.16
2018-09-02T08:09:06.683Z,96044.61
2018-09-02T08:11:41.508Z,96046.85
2018-09-02T08:14:15.999Z,96051.38
2018-09-02T08:16:50.536Z,96058.81
2018-09-02T08:19:25.377Z,96053.77
2018-09-02T08:22:08.209Z,96060.94
2018-09-02T08:24:42.867Z,96059.27
2018-09-02T08:27:17.668Z,96056.00
2018-09-02T08:29:52.471Z,96057.34
2018-09-02T08:32:26.829Z,96056.03
2018-09-02T08:35:01.504Z,96061.08
2018-09-02T08:37:36.295Z,96058.77
2018-09-02T08:40:12.348Z,96060.41
2018-09-02T08:42:47.123Z,96055.33
2018-09-02T08:45:22.189Z,96054.05
2018-09-02T08:47:57.219Z,96048.03
2018-09-02T08:50:31.688Z,96049.15
2018-09-02T08:53:06.586Z,96045.92
2018-09-02T08:55:41.419Z,96045.05
2018-09-02T08:58:16.299Z,96046.05
2018-09-02T09:00:50.632Z,96056.14
2018-09-02T09:03:25.463Z,96054.42
2018-09-02T09:05:59.743Z,96053.49
2018-09-02T09:08:35.295Z,96047.97
2018-09-02T09:11:10.341Z,96042.72
2018-09-02T09:13:45.627Z,96046.66
2018-09-02T09:16:20.396Z,96041.70
2018-09-02T09:18:56.316Z,96046.42
2018-09-02T09:21:31.341Z,96038.16
2018-09-02T09:24:06.429Z,96039.25
2018-09-02T09:26:40.896Z,96032.45
2018-09-02T09:29:15.400Z,96040.94
2018-09-02T09:31:50.039Z,96035.20
2018-09-02T09:34:24.656Z,96032.05
2018-09-02T09:36:59.276Z,96035.09
2018-09-02T09:39:34.579Z,96043.23
2018-09-02T09:42:09.531Z,96042.78
2018-09-02T09:44:44.200Z,96039.28
2018-09-02T09:47:18.551Z,96041.70
2018-09-02T09:49:53.209Z,96037.97
2018-09-02T09:52:27.915Z,96038.09
2018-09-02T09:57:40.194Z,96041.30
2018-09-02T10:00:20.692Z,96043.41
2018-09-02T10:02:55.372Z,96041.73
2018-09-02T10:05:30.155Z,96035.56
2018-09-02T10:08:04.824Z,96037.06
2018-09-02T10:10:39.272Z,96024.92
2018-09-02T10:13:13.651Z,96021.72
2018-09-02T10:15:48.022Z,96017.25
2018-09-02T10:18:22.715Z,96020.40
2018-09-02T10:20:57.839Z,96020.35
2018-09-02T10:23:32.476Z,96017.39
2018-09-02T10:26:07.751Z,96012.34
2018-09-02T10:28:42.424Z,96008.66
2018-09-02T10:31:17.135Z,95999.16
2018-09-02T10:33:51.819Z,96008.44
2018-09-02T10:36:26.643Z,96003.33
2018-09-02T10:39:03.282Z,96005.67
2018-09-02T10:41:37.940Z,96008.61
2018-09-02T10:44:12.518Z,96006.05
2018-09-02T10:46:47.231Z,96006.05
2018-09-02T10:49:22.487Z,96008.91
2018-09-02T10:51:57.292Z,96006.11
2018-09-02T10:54:32.382Z,96014.39
2018-09-02T10:57:06.966Z,96012.55
2018-09-02T10:59:41.377Z,96013.06
2018-09-02T11:02:16.160Z,96004.96
2018-09-02T11:04:50.572Z,96000.40
2018-09-02T11:07:25.295Z,96001.23
2018-09-02T11:10:00.035Z,96002.02
2018-09-02T11:12:34.461Z,95995.30
2018-09-02T11:15:09.458Z,95995.56
2018-09-02T11:17:44.532Z,96000.85
2018-09-02T11:20:19.068Z,96000.50
2018-09-02T11:22:53.835Z,95993.62
2018-09-02T11:25:29.480Z,95993.38
2018-09-02T11:28:04.322Z,95994.00
2018-09-02T11:30:39.011Z,95989.58
2018-09-02T11:33:13.375Z,95981.26
2018-09-02T11:35:48.054Z,95984.92
2018-09-02T11:38:22.767Z,95979.82
2018-09-02T11:40:57.696Z,95979.64
2018-09-02T11:43:35.396Z,95974.22
2018-09-02T11:46:09.980Z,95973.00
2018-09-02T11:48:44.954Z,95976.80
2018-09-02T11:51:19.903Z,95974.03
2018-09-02T11:53:54.431Z,95978.66
2018-09-02T11:56:28.924Z,95973.21
2018-09-02T11:59:04.487Z,95977.95
2018-09-02T12:01:40.319Z,95973.62
2018-09-02T12:04:14.871Z,95973.86
2018-09-02T12:06:49.924Z,95966.48
2018-09-02T12:09:24.891Z,95968.26
2018-09-02T12:11:59.425Z,95967.81
2018-09-02T12:14:34.432Z,95961.30
2018-09-02T12:17:09.472Z,95956.61
2018-09-02T12:19:44.100Z,95961.63
2018-09-02T12:22:19.083Z,95958.55
2018-09-02T12:24:54.076Z,95949.03
2018-09-02T12:27:28.659Z,95948.64
2018-09-02T12:30:03.587Z,95950.24
2018-09-02T12:32:38.119Z,95950.03
2018-09-02T12:35:12.828Z,95953.92
2018-09-02T12:37:47.423Z,95948.36
2018-09-02T12:40:22.607Z,95936.95
2018-09-02T12:42:56.965Z,95939.48
2018-09-02T12:45:31.938Z,95937.25
2018-09-02T12:48:07.101Z,95923.81
2018-09-02T12:50:42.623Z,95929.13
2018-09-02T12:53:17.588Z,95934.16
2018-09-02T12:55:51.906Z,95926.88
2018-09-02T12:58:26.400Z,95924.23
2018-09-02T13:01:01.272Z,95927.27
2018-09-02T13:03:35.827Z,95932.36
2018-09-02T13:06:10.539Z,95930.20
2018-09-02T13:08:45.559Z,95923.21
2018-09-02T13:11:19.953Z,95928.54
2018-09-02T13:13:54.652Z,95915.80
2018-09-02T13:16:29.524Z,95916.47
2018-09-02T13:19:04.432Z,95911.31
2018-09-02T13:21:38.866Z,95916.98
2018-09-02T13:24:13.521Z,95914.39
2018-09-02T13:26:47.913Z,95912.33
2018-09-02T13:29:22.647Z,95901.73
2018-09-02T13:31:57.295Z,95891.98
2018-09-02T13:34:32.127Z,95896.83
2018-09-02T13:37:06.910Z,95902.02
2018-09-02T13:39:41.906Z,95898.36
2018-09-02T13:42:16.868Z,95897.37
2018-09-02T13:44:51.196Z,95895.48
2018-09-02T13:47:26.197Z,95894.47
2018-09-02T13:50:00.984Z,95884.58
2018-09-02T13:52:35.592Z,95886.42
2018-09-02T13:55:10.448Z,95884.61
2018-09-02T13:57:45.483Z,95893.09
2018-09-02T14:00:20.151Z,95892.73
2018-09-02T14:02:54.950Z,95896.22
2018-09-02T14:05:29.207Z,95895.16
2018-09-02T14:08:03.878Z,95889.78
2018-09-02T14:10:38.628Z,95882.61
2018-09-02T14:13:12.988Z,95875.29
2018-09-02T14:15:47.751Z,95883.13
2018-09-02T14:18:22.303Z,95883.73
2018-09-02T14:20:56.861Z,95891.73
2018-09-02T14:23:31.251Z,95885.18
2018-09-02T14:26:06.269Z,95879.39
2018-09-02T14:28:41.252Z,95877.55
2018-09-02T14:31:16.092Z,95876.63
2018-09-02T14:33:50.795Z,95873.13
2018-09-02T14:36:25.358Z,95871.88
2018-09-02T14:39:00.029Z,95868.67
2018-09-02T14:41:34.532Z,95872.22
2018-09-02T14:44:09.567Z,95881.17
2018-09-02T14:46:44.455Z,95870.44
2018-09-02T14:49:19.004Z,95867.70
2018-09-02T14:51:53.728Z,95862.11
2018-09-02T14:54:28.277Z,95864.82
2018-09-02T14:57:03.756Z,95868.44
2018-09-02T14:59:38.197Z,95872.95
2018-09-02T15:02:12.583Z,95870.36
2018-09-02T15:04:47.403Z,95872.52
2018-09-02T15:07:21.719Z,95876.39
2018-09-02T15:09:56.844Z,95874.55
2018-09-02T15:12:31.143Z,95878.39
2018-09-02T15:15:06.044Z,95877.30
2018-09-02T15:17:40.584Z,95874.75
2018-09-02T15:20:15.791Z,95873.83
2018-09-02T15:22:50.448Z,95871.94
2018-09-02T15:25:25.412Z,95870.25
2018-09-02T15:27:59.745Z,95874.40
2018-09-02T15:30:34.460Z,95870.52
2018-09-02T15:33:09.622Z,95871.59
2018-09-02T15:35:44.076Z,95871.57
2018-09-02T15:38:19.530Z,95867.97
2018-09-02T15:40:53.965Z,95876.13
2018-09-02T15:43:28.397Z,95876.76
2018-09-02T15:46:03.495Z,95872.00
2018-09-02T15:48:38.156Z,95866.17
2018-09-02T15:51:12.851Z,95865.33
2018-09-02T15:53:47.260Z,95866.91
2018-09-02T15:56:21.979Z,95865.16
2018-09-02T15:58:56.521Z,95868.17
2018-09-02T16:01:31.215Z,95873.98
2018-09-02T16:04:05.656Z,95874.21
2018-09-02T16:06:40.536Z,95870.20
2018-09-02T16:09:15.005Z,95867.91
2018-09-02T16:11:49.369Z,95866.24
2018-09-02T16:14:24.293Z,95866.69
2018-09-02T16:16:59.328Z,95865.88
2018-09-02T16:19:33.707Z,95859.16
2018-09-02T16:22:08.103Z,95855.94
2018-09-02T16:24:42.544Z,95860.53
2018-09-02T16:27:17.271Z,95858.35
2018-09-02T16:29:52.003Z,95857.27
2018-09-02T16:32:28.124Z,95853.73
2018-09-02T16:35:02.947Z,95853.09
2018-09-02T16:37:37.414Z,95854.63
2018-09-02T16:40:12.231Z,95852.86
2018-09-02T16:42:46.872Z,95852.92
2018-09-02T16:45:21.994Z,95848.45
2018-09-02T16:47:56.414Z,95846.20
2018-09-02T16:50:30.825Z,95845.11
2018-09-02T16:53:05.854Z,95841.67
2018-09-02T16:55:40.558Z,95839.39
2018-09-02T16:58:14.938Z,95841.81
2018-09-02T17:00:49.741Z,95837.80
2018-09-02T17:03:28.686Z,95842.25
2018-09-02T17:06:03.393Z,95833.05
2018-09-02T17:08:38.160Z,95835.09
2018-09-02T17:11:13.694Z,95839.97
2018-09-02T17:13:48.488Z,95844.28
2018-09-02T17:16:23.484Z,95844.20
2018-09-02T17:19:16.895Z,95838.08
2018-09-02T17:21:51.464Z,95840.24
2018-09-02T17:24:25.969Z,95840.24
2018-09-02T17:27:00.409Z,95842.98
2018-09-02T17:29:34.759Z,95838.57
2018-09-02T17:32:11.532Z,95838.27
2018-09-02T17:34:46.644Z,95836.38
2018-09-02T17:37:21.092Z,95831.63
2018-09-02T17:39:55.524Z,95831.99
2018-09-02T17:42:29.967Z,95834.15
2018-09-02T17:45:04.433Z,95837.45
2018-09-02T17:47:39.351Z,95841.52
2018-09-02T17:50:13.840Z,95834.66
2018-09-02T17:52:48.218Z,95836.95
2018-09-02T17:55:22.742Z,95836.58
2018-09-02T17:57:57.437Z,95831.27
2018-09-02T18:00:35.383Z,95842.95
2018-09-02T18:03:09.835Z,95850.62
2018-09-02T18:05:44.871Z,95860.23
2018-09-02T18:08:19.530Z,95855.44
2018-09-02T18:10:54.810Z,95855.34
2018-09-02T18:13:30.068Z,95855.44
2018-09-02T18:16:09.625Z,95866.08
2018-09-02T18:18:44.211Z,95867.82
2018-09-02T18:21:20.023Z,95864.73
2018-09-02T18:23:54.618Z,95866.66
2018-09-02T18:26:29.963Z,95871.81
2018-09-02T18:29:06.225Z,95880.19
2018-09-02T18:31:41.072Z,95878.69
2018-09-02T18:34:15.511Z,95880.30
2018-09-02T18:36:50.199Z,95880.13
2018-09-02T18:39:25.012Z,95884.95
2018-09-02T18:42:00.605Z,95879.91
2018-09-02T18:44:35.296Z,95874.88
2018-09-02T18:47:10.577Z,95873.56
2018-09-02T18:49:45.629Z,95875.47
2018-09-02T18:52:20.019Z,95878.61
2018-09-02T18:54:54.740Z,95879.63
2018-09-02T18:57:29.377Z,95873.06
2018-09-02T19:00:03.988Z,95865.31
2018-09-02T19:02:39.398Z,95873.91
2018-09-02T19:05:15.863Z,95871.68
2018-09-02T19:07:50.418Z,95878.36
2018-09-02T19:10:25.468Z,95876.72
2018-09-02T19:13:00.029Z,95871.80
2018-09-02T19:15:35.703Z,95875.22
2018-09-02T19:18:20.120Z,95874.81
2018-09-02T19:20:55.104Z,95872.83
2018-09-02T19:23:29.714Z,95863.85
2018-09-02T19:26:04.848Z,95862.54
2018-09-02T19:28:39.268Z,95856.48
2018-09-02T19:31:14.115Z,95858.81
2018-09-02T19:33:48.485Z,95850.44
2018-09-02T19:36:23.358Z,95845.61
2018-09-02T19:38:57.769Z,95848.23
2018-09-02T19:41:32.262Z,95849.13
2018-09-02T19:44:07.407Z,95848.23
2018-09-02T19:46:42.097Z,95841.67
2018-09-02T19:49:17.041Z,95847.14
2018-09-02T19:51:51.602Z,95844.19
2018-09-02T19:54:26.090Z,95845.41
2018-09-02T19:57:01.216Z,95844.23
2018-09-02T19:59:35.556Z,95845.03
2018-09-02T20:02:10.204Z,95840.80
2018-09-02T20:04:45.189Z,95840.72
2018-09-02T20:07:19.711Z,95840.00
2018-09-02T20:09:57.252Z,95838.89
2018-09-02T20:12:31.846Z,95841.31
2018-09-02T20:15:07.084Z,95844.31
2018-09-02T20:17:42.170Z,95843.42
2018-09-02T20:20:17.072Z,95838.60
2018-09-02T20:22:51.662Z,95839.62
2018-09-02T20:25:26.747Z,95840.42
2018-09-02T20:28:02.466Z,95845.97
2018-09-02T20:30:36.968Z,95848.59
2018-09-02T20:33:12.129Z,95849.02
2018-09-02T20:35:47.733Z,95855.56
2018-09-02T20:38:22.078Z,95847.19
2018-09-02T20:40:56.619Z,95851.34
2018-09-02T20:43:32.150Z,95842.25
2018-09-02T20:46:07.859Z,95843.56
2018-09-02T20:48:42.951Z,95843.35
2018-09-02T20:51:18.090Z,95849.41
2018-09-02T20:53:52.955Z,95844.06
2018-09-02T20:56:30.719Z,95845.17
2018-09-02T20:59:05.502Z,95851.04
2018-09-02T21:01:40.127Z,95848.09
2018-09-02T21:04:14.607Z,95855.66
2018-09-02T21:06:49.612Z,95856.58
2018-09-02T21:09:24.597Z,95858.28
2018-09-02T21:11:59.267Z,95859.72
2018-09-02T21:17:12.593Z,95850.20
2018-09-02T21:19:48.101Z,95843.56
2018-09-02T21:22:23.288Z,95842.46
2018-09-02T21:24:58.727Z,95835.78
2018-09-02T21:27:33.450Z,95833.23
2018-09-02T21:30:09.546Z,95830.09
2018-09-02T21:32:44.116Z,95832.21
2018-09-02T21:35:18.928Z,95841.52
2018-09-02T21:37:53.325Z,95838.73
2018-09-02T21:40:28.737Z,95842.04
2018-09-02T21:43:03.384Z,95834.63
2018-09-02T21:45:38.784Z,95834.13
2018-09-02T21:48:13.579Z,95832.81
2018-09-02T21:50:48.059Z,95835.61
2018-09-02T21:53:22.379Z,95834.89
2018-09-02T21:55:57.060Z,95827.61
2018-09-02T21:58:32.195Z,95821.86
2018-09-02T22:01:07.275Z,95817.41
2018-09-02T22:03:41.917Z,95822.07
2018-09-02T22:06:16.338Z,95818.14
2018-09-02T22:08:50.827Z,95815.52
2018-09-02T22:11:25.704Z,95811.88
2018-09-02T22:14:00.379Z,95810.68
2018-09-02T22:16:35.054Z,95802.00
2018-09-02T22:19:09.435Z,95793.92
2018-09-02T22:21:43.763Z,95781.98
2018-09-02T22:24:18.200Z,95769.16
2018-09-02T22:26:53.235Z,95756.05
2018-09-02T22:29:27.640Z,95744.03
2018-09-02T22:32:02.011Z,95740.90
2018-09-02T22:34:36.609Z,95736.16
2018-09-02T22:37:11.093Z,95724.36
2018-09-02T22:39:45.427Z,95709.50
2018-09-02T22:42:19.844Z,95709.41
2018-09-02T22:44:54.258Z,95701.77
2018-09-02T22:47:28.763Z,95696.00
2018-09-02T22:50:03.606Z,95698.62
2018-09-02T22:52:38.341Z,95698.84
2018-09-02T22:55:12.780Z,95703.88
2018-09-02T22:57:47.253Z,95695.93
2018-09-02T23:00:22.021Z,95705.19
2018-09-02T23:02:56.534Z,95698.77
2018-09-02T23:05:32.267Z,95698.69
2018-09-02T23:08:27.109Z,95708.67
2018-09-02T23:11:03.415Z,95720.47
2018-09-02T23:13:38.924Z,95730.48
2018-09-02T23:16:13.527Z,95729.30
2018-09-02T23:18:49.007Z,95729.53
2018-09-02T23:21:23.763Z,95737.71
2018-09-02T23:24:06.816Z,95729.59
2018-09-02T23:26:43.323Z,95735.57
2018-09-02T23:29:18.321Z,95734.19
2018-09-02T23:31:52.794Z,95737.36
2018-09-02T23:34:27.220Z,95746.45
2018-09-02T23:37:01.723Z,95742.13
2018-09-02T23:39:36.235Z,95756.16
2018-09-02T23:42:10.640Z,95767.27
2018-09-02T23:44:45.104Z,95780.69
2018-09-02T23:47:19.603Z,95789.16
2018-09-02T23:49:53.911Z,95787.02
2018-09-02T23:52:28.580Z,95792.16
2018-09-02T23:55:03.075Z,95783.00
2018-09-02T23:57:37.694Z,95779.07
